sensor_id;sensor_type;location;lat;lon;timestamp;pressure;altitude;pressure_sealevel;temperature;humidity
70411;BME280;57832;46.038;11.398;2022-12-20T00:01:25;98280.66;;;-3.58;100.00
70411;BME280;57832;46.038;11.398;2022-12-20T00:03:52;98281.97;;;-3.63;100.00
70411;BME280;57832;46.038;11.398;2022-12-20T00:06:18;98277.50;;;-3.50;100.00
70411;BME280;57832;46.038;11.398;2022-12-20T00:08:43;98278.91;;;-3.46;100.00
70411;BME280;57832;46.038;11.398;2022-12-20T00:11:09;98272.97;;;-3.58;100.00
70411;BME280;57832;46.038;11.398;2022-12-20T00:13:35;98265.41;;;-3.59;100.00
70411;BME280;57832;46.038;11.398;2022-12-20T00:16:05;98264.00;;;-3.63;100.00
70411;BME280;57832;46.038;11.398;2022-12-20T00:18:30;98273.56;;;-3.54;100.00
70411;BME280;57832;46.038;11.398;2022-12-20T00:20:59;98261.91;;;-3.70;100.00
70411;BME280;57832;46.038;11.398;2022-12-20T00:23:25;98255.84;;;-3.68;100.00
70411;BME280;57832;46.038;11.398;2022-12-20T00:25:50;98257.13;;;-3.63;100.00
70411;BME280;57832;46.038;11.398;2022-12-20T00:28:15;98256.31;;;-3.63;100.00
70411;BME280;57832;46.038;11.398;2022-12-20T00:30:41;98257.72;;;-3.59;100.00
70411;BME280;57832;46.038;11.398;2022-12-20T00:33:06;98257.59;;;-3.58;100.00
70411;BME280;57832;46.038;11.398;2022-12-20T00:35:31;98260.06;;;-3.67;100.00
70411;BME280;57832;46.038;11.398;2022-12-20T00:37:57;98257.00;;;-3.61;100.00
70411;BME280;57832;46.038;11.398;2022-12-20T00:40:22;98249.22;;;-3.60;100.00
70411;BME280;57832;46.038;11.398;2022-12-20T00:42:47;98251.50;;;-3.45;100.00
70411;BME280;57832;46.038;11.398;2022-12-20T00:45:13;98253.84;;;-3.54;100.00
70411;BME280;57832;46.038;11.398;2022-12-20T00:47:38;98249.22;;;-3.60;100.00
70411;BME280;57832;46.038;11.398;2022-12-20T00:50:04;98254.22;;;-3.58;100.00
70411;BME280;57832;46.038;11.398;2022-12-20T00:52:29;98255.59;;;-3.54;100.00
70411;BME280;57832;46.038;11.398;2022-12-20T00:54:54;98261.97;;;-3.37;100.00
70411;BME280;57832;46.038;11.398;2022-12-20T00:57:20;98272.88;;;-3.67;100.00
70411;BME280;57832;46.038;11.398;2022-12-20T00:59:45;98260.66;;;-3.75;100.00
70411;BME280;57832;46.038;11.398;2022-12-20T01:02:10;98262.63;;;-3.67;100.00
70411;BME280;57832;46.038;11.398;2022-12-20T01:04:36;98259.72;;;-3.74;100.00
70411;BME280;57832;46.038;11.398;2022-12-20T01:07:01;98255.84;;;-3.68;100.00
70411;BME280;57832;46.038;11.398;2022-12-20T01:09:27;98254.34;;;-3.60;100.00
70411;BME280;57832;46.038;11.398;2022-12-20T01:11:52;98247.13;;;-3.77;100.00
70411;BME280;57832;46.038;11.398;2022-12-20T01:14:17;98245.97;;;-3.84;100.00
70411;BME280;57832;46.038;11.398;2022-12-20T01:16:43;98234.78;;;-3.95;100.00
70411;BME280;57832;46.038;11.398;2022-12-20T01:19:10;98239.34;;;-3.87;100.00
70411;BME280;57832;46.038;11.398;2022-12-20T01:21:36;98244.22;;;-3.84;100.00
70411;BME280;57832;46.038;11.398;2022-12-20T01:24:03;98241.31;;;-3.91;100.00
70411;BME280;57832;46.038;11.398;2022-12-20T01:26:29;98261.13;;;-4.04;100.00
70411;BME280;57832;46.038;11.398;2022-12-20T01:28:55;98257.06;;;-3.95;100.00
70411;BME280;57832;46.038;11.398;2022-12-20T01:31:21;98259.63;;;-4.18;100.00
70411;BME280;57832;46.038;11.398;2022-12-20T01:33:47;98251.00;;;-4.06;100.00
70411;BME280;57832;46.038;11.398;2022-12-20T01:36:18;98257.66;;;-3.92;100.00
70411;BME280;57832;46.038;11.398;2022-12-20T01:38:44;98255.66;;;-4.11;100.00
70411;BME280;57832;46.038;11.398;2022-12-20T01:41:16;98243.06;;;-4.03;100.00
70411;BME280;57832;46.038;11.398;2022-12-20T01:43:44;98244.13;;;-3.82;100.00
70411;BME280;57832;46.038;11.398;2022-12-20T01:46:10;98242.34;;;-3.82;100.00
70411;BME280;57832;46.038;11.398;2022-12-20T01:48:35;98232.47;;;-3.98;100.00
70411;BME280;57832;46.038;11.398;2022-12-20T01:51:01;98242.22;;;-3.80;100.00
70411;BME280;57832;46.038;11.398;2022-12-20T01:53:27;98235.13;;;-3.77;100.00
70411;BME280;57832;46.038;11.398;2022-12-20T01:55:52;98232.31;;;-3.62;100.00
70411;BME280;57832;46.038;11.398;2022-12-20T01:58:18;98233.19;;;-3.52;100.00
70411;BME280;57832;46.038;11.398;2022-12-20T02:00:44;98228.56;;;-3.58;100.00
70411;BME280;57832;46.038;11.398;2022-12-20T02:03:11;98226.13;;;-3.71;100.00
70411;BME280;57832;46.038;11.398;2022-12-20T02:05:38;98221.13;;;-3.84;100.00
70411;BME280;57832;46.038;11.398;2022-12-20T02:08:04;98220.75;;;-3.68;100.00
70411;BME280;57832;46.038;11.398;2022-12-20T02:10:51;98208.34;;;-3.95;100.00
70411;BME280;57832;46.038;11.398;2022-12-20T02:13:20;98207.50;;;-3.84;100.00
70411;BME280;57832;46.038;11.398;2022-12-20T02:15:50;98205.28;;;-3.78;100.00
70411;BME280;57832;46.038;11.398;2022-12-20T02:18:22;98200.97;;;-3.77;100.00
70411;BME280;57832;46.038;11.398;2022-12-20T02:23:25;98191.31;;;-3.85;100.00
70411;BME280;57832;46.038;11.398;2022-12-20T02:31:10;98175.69;;;-3.93;100.00
70411;BME280;57832;46.038;11.398;2022-12-20T02:33:38;98173.94;;;-3.81;100.00
70411;BME280;57832;46.038;11.398;2022-12-20T02:36:06;98180.63;;;-3.90;100.00
70411;BME280;57832;46.038;11.398;2022-12-20T02:38:36;98175.94;;;-3.96;100.00
70411;BME280;57832;46.038;11.398;2022-12-20T02:43:30;98178.97;;;-4.03;100.00
70411;BME280;57832;46.038;11.398;2022-12-20T02:46:16;98174.78;;;-3.81;100.00
70411;BME280;57832;46.038;11.398;2022-12-20T02:48:43;98173.75;;;-4.01;100.00
70411;BME280;57832;46.038;11.398;2022-12-20T02:51:10;98166.13;;;-3.80;100.00
70411;BME280;57832;46.038;11.398;2022-12-20T02:53:36;98167.41;;;-3.86;100.00
70411;BME280;57832;46.038;11.398;2022-12-20T02:58:30;98162.56;;;-4.00;100.00
70411;BME280;57832;46.038;11.398;2022-12-20T03:00:56;98169.25;;;-3.76;100.00
70411;BME280;57832;46.038;11.398;2022-12-20T03:03:29;98160.91;;;-3.90;100.00
70411;BME280;57832;46.038;11.398;2022-12-20T03:05:54;98154.66;;;-4.08;100.00
70411;BME280;57832;46.038;11.398;2022-12-20T03:08:21;98155.22;;;-4.16;100.00
70411;BME280;57832;46.038;11.398;2022-12-20T03:10:47;98157.28;;;-3.87;100.00
70411;BME280;57832;46.038;11.398;2022-12-20T03:13:12;98164.78;;;-4.07;100.00
70411;BME280;57832;46.038;11.398;2022-12-20T03:15:38;98161.78;;;-4.12;100.00
70411;BME280;57832;46.038;11.398;2022-12-20T03:18:03;98158.84;;;-4.07;100.00
70411;BME280;57832;46.038;11.398;2022-12-20T03:20:29;98166.88;;;-4.00;100.00
70411;BME280;57832;46.038;11.398;2022-12-20T03:22:54;98161.16;;;-3.93;100.00
70411;BME280;57832;46.038;11.398;2022-12-20T03:25:19;98155.22;;;-4.05;100.00
70411;BME280;57832;46.038;11.398;2022-12-20T03:27:45;98151.50;;;-3.89;100.00
70411;BME280;57832;46.038;11.398;2022-12-20T03:30:10;98157.53;;;-3.90;100.00
70411;BME280;57832;46.038;11.398;2022-12-20T03:32:36;98159.06;;;-3.88;100.00
70411;BME280;57832;46.038;11.398;2022-12-20T03:35:02;98160.06;;;-3.79;100.00
70411;BME280;57832;46.038;11.398;2022-12-20T03:37:27;98160.09;;;-3.90;100.00
70411;BME280;57832;46.038;11.398;2022-12-20T03:39:53;98150.44;;;-3.98;100.00
70411;BME280;57832;46.038;11.398;2022-12-20T03:42:18;98148.22;;;-3.91;100.00
70411;BME280;57832;46.038;11.398;2022-12-20T03:44:43;98157.75;;;-3.82;100.00
70411;BME280;57832;46.038;11.398;2022-12-20T03:47:09;98151.25;;;-3.97;100.00
70411;BME280;57832;46.038;11.398;2022-12-20T03:49:34;98151.03;;;-3.94;100.00
70411;BME280;57832;46.038;11.398;2022-12-20T03:51:59;98143.47;;;-3.96;100.00
70411;BME280;57832;46.038;11.398;2022-12-20T03:54:25;98143.25;;;-4.27;100.00
70411;BME280;57832;46.038;11.398;2022-12-20T03:56:51;98139.09;;;-4.28;100.00
70411;BME280;57832;46.038;11.398;2022-12-20T03:59:16;98142.78;;;-4.21;100.00
70411;BME280;57832;46.038;11.398;2022-12-20T04:01:42;98142.78;;;-4.21;100.00
70411;BME280;57832;46.038;11.398;2022-12-20T04:04:08;98142.78;;;-4.21;100.00
70411;BME280;57832;46.038;11.398;2022-12-20T04:06:34;98148.97;;;-4.23;100.00
70411;BME280;57832;46.038;11.398;2022-12-20T04:08:59;98137.09;;;-4.24;100.00
70411;BME280;57832;46.038;11.398;2022-12-20T04:11:25;98142.69;;;-4.30;100.00
70411;BME280;57832;46.038;11.398;2022-12-20T04:13:51;98146.88;;;-4.18;100.00
70411;BME280;57832;46.038;11.398;2022-12-20T04:16:17;98155.22;;;-4.16;100.00
70411;BME280;57832;46.038;11.398;2022-12-20T04:18:43;98146.63;;;-4.15;100.00
70411;BME280;57832;46.038;11.398;2022-12-20T04:21:09;98152.47;;;-4.24;100.00
70411;BME280;57832;46.038;11.398;2022-12-20T04:23:35;98145.47;;;-4.22;100.00
70411;BME280;57832;46.038;11.398;2022-12-20T04:26:01;98131.84;;;-4.11;100.00
70411;BME280;57832;46.038;11.398;2022-12-20T04:28:27;98139.47;;;-4.00;100.00
70411;BME280;57832;46.038;11.398;2022-12-20T04:30:52;98140.66;;;-3.93;100.00
70411;BME280;57832;46.038;11.398;2022-12-20T04:33:17;98144.78;;;-4.13;100.00
70411;BME280;57832;46.038;11.398;2022-12-20T04:35:43;98138.69;;;-4.00;100.00
70411;BME280;57832;46.038;11.398;2022-12-20T04:38:08;98133.47;;;-4.10;100.00
70411;BME280;57832;46.038;11.398;2022-12-20T04:40:33;98130.81;;;-4.31;100.00
70411;BME280;57832;46.038;11.398;2022-12-20T04:42:59;98124.28;;;-4.24;100.00
70411;BME280;57832;46.038;11.398;2022-12-20T04:45:24;98124.63;;;-4.17;100.00
70411;BME280;57832;46.038;11.398;2022-12-20T04:47:49;98114.47;;;-4.08;100.00
70411;BME280;57832;46.038;11.398;2022-12-20T04:50:15;98121.06;;;-3.94;100.00
70411;BME280;57832;46.038;11.398;2022-12-20T04:52:40;98117.97;;;-4.09;100.00
70411;BME280;57832;46.038;11.398;2022-12-20T04:55:24;98116.72;;;-4.14;100.00
70411;BME280;57832;46.038;11.398;2022-12-20T04:57:49;98116.00;;;-4.05;100.00
70411;BME280;57832;46.038;11.398;2022-12-20T05:00:15;98126.13;;;-4.04;100.00
70411;BME280;57832;46.038;11.398;2022-12-20T05:02:41;98125.47;;;-3.84;100.00
70411;BME280;57832;46.038;11.398;2022-12-20T05:05:06;98120.25;;;-3.94;100.00
70411;BME280;57832;46.038;11.398;2022-12-20T05:07:32;98108.44;;;-3.86;100.00
70411;BME280;57832;46.038;11.398;2022-12-20T05:09:57;98102.78;;;-4.00;100.00
70411;BME280;57832;46.038;11.398;2022-12-20T05:12:22;98099.13;;;-4.19;100.00
70411;BME280;57832;46.038;11.398;2022-12-20T05:14:48;98101.03;;;-4.44;100.00
70411;BME280;57832;46.038;11.398;2022-12-20T05:17:13;98105.31;;;-4.33;100.00
70411;BME280;57832;46.038;11.398;2022-12-20T05:19:39;98105.75;;;-4.16;100.00
70411;BME280;57832;46.038;11.398;2022-12-20T05:22:04;98103.81;;;-4.35;100.00
70411;BME280;57832;46.038;11.398;2022-12-20T05:24:48;98108.59;;;-4.42;100.00
70411;BME280;57832;46.038;11.398;2022-12-20T05:27:42;98100.06;;;-4.31;100.00
70411;BME280;57832;46.038;11.398;2022-12-20T05:30:08;98108.66;;;-4.10;100.00
70411;BME280;57832;46.038;11.398;2022-12-20T05:32:33;98104.78;;;-4.04;100.00
70411;BME280;57832;46.038;11.398;2022-12-20T05:34:59;98108.97;;;-4.03;100.00
70411;BME280;57832;46.038;11.398;2022-12-20T05:37:24;98103.78;;;-4.13;100.00
70411;BME280;57832;46.038;11.398;2022-12-20T05:39:49;98101.31;;;-4.14;100.00
70411;BME280;57832;46.038;11.398;2022-12-20T05:42:15;98105.41;;;-4.12;100.00
70411;BME280;57832;46.038;11.398;2022-12-20T05:44:40;98104.91;;;-4.06;100.00
70411;BME280;57832;46.038;11.398;2022-12-20T05:47:06;98104.38;;;-3.88;100.00
70411;BME280;57832;46.038;11.398;2022-12-20T05:49:31;98091.88;;;-4.14;100.00
70411;BME280;57832;46.038;11.398;2022-12-20T05:51:56;98090.56;;;-4.08;100.00
70411;BME280;57832;46.038;11.398;2022-12-20T05:54:22;98084.78;;;-4.10;100.00
70411;BME280;57832;46.038;11.398;2022-12-20T05:56:49;98085.88;;;-3.92;100.00
70411;BME280;57832;46.038;11.398;2022-12-20T05:59:14;98099.91;;;-4.07;100.00
70411;BME280;57832;46.038;11.398;2022-12-20T06:01:42;98095.91;;;-4.00;100.00
70411;BME280;57832;46.038;11.398;2022-12-20T06:04:07;98096.94;;;-4.35;100.00
70411;BME280;57832;46.038;11.398;2022-12-20T06:06:32;98101.06;;;-4.11;100.00
70411;BME280;57832;46.038;11.398;2022-12-20T06:08:58;98101.25;;;-4.35;100.00
70411;BME280;57832;46.038;11.398;2022-12-20T06:11:23;98100.78;;;-4.41;100.00
70411;BME280;57832;46.038;11.398;2022-12-20T06:13:48;98096.13;;;-4.47;100.00
70411;BME280;57832;46.038;11.398;2022-12-20T06:16:14;98091.25;;;-4.50;100.00
70411;BME280;57832;46.038;11.398;2022-12-20T06:18:39;98090.41;;;-4.39;100.00
70411;BME280;57832;46.038;11.398;2022-12-20T06:21:05;98089.44;;;-4.15;100.00
70411;BME280;57832;46.038;11.398;2022-12-20T06:23:30;98095.38;;;-4.15;100.00
70411;BME280;57832;46.038;11.398;2022-12-20T06:25:55;98091.28;;;-4.06;100.00
70411;BME280;57832;46.038;11.398;2022-12-20T06:28:22;98084.91;;;-4.12;100.00
70411;BME280;57832;46.038;11.398;2022-12-20T06:30:53;98082.94;;;-4.31;100.00
70411;BME280;57832;46.038;11.398;2022-12-20T06:33:19;98087.22;;;-4.20;100.00
70411;BME280;57832;46.038;11.398;2022-12-20T06:35:45;98086.44;;;-4.21;100.00
70411;BME280;57832;46.038;11.398;2022-12-20T06:38:10;98090.06;;;-4.57;100.00
70411;BME280;57832;46.038;11.398;2022-12-20T06:40:36;98093.47;;;-4.57;100.00
70411;BME280;57832;46.038;11.398;2022-12-20T06:43:01;98093.09;;;-4.41;100.00
70411;BME280;57832;46.038;11.398;2022-12-20T06:45:27;98089.06;;;-4.66;100.00
70411;BME280;57832;46.038;11.398;2022-12-20T06:47:52;98089.97;;;-4.67;100.00
70411;BME280;57832;46.038;11.398;2022-12-20T06:50:17;98095.44;;;-4.60;100.00
70411;BME280;57832;46.038;11.398;2022-12-20T06:52:43;98099.72;;;-4.49;100.00
70411;BME280;57832;46.038;11.398;2022-12-20T06:55:08;98094.94;;;-4.43;100.00
70411;BME280;57832;46.038;11.398;2022-12-20T06:57:34;98101.72;;;-4.42;100.00
70411;BME280;57832;46.038;11.398;2022-12-20T06:59:59;98099.38;;;-4.33;100.00
70411;BME280;57832;46.038;11.398;2022-12-20T07:02:25;98102.38;;;-4.28;100.00
70411;BME280;57832;46.038;11.398;2022-12-20T07:04:50;98096.13;;;-4.35;100.00
70411;BME280;57832;46.038;11.398;2022-12-20T07:07:15;98096.59;;;-4.42;100.00
70411;BME280;57832;46.038;11.398;2022-12-20T07:09:41;98095.63;;;-4.29;100.00
70411;BME280;57832;46.038;11.398;2022-12-20T07:12:07;98104.22;;;-4.19;100.00
70411;BME280;57832;46.038;11.398;2022-12-20T07:14:33;98110.03;;;-4.06;100.00
70411;BME280;57832;46.038;11.398;2022-12-20T07:16:58;98102.84;;;-4.12;100.00
70411;BME280;57832;46.038;11.398;2022-12-20T07:19:24;98104.09;;;-4.06;100.00
70411;BME280;57832;46.038;11.398;2022-12-20T07:21:49;98113.31;;;-4.04;100.00
70411;BME280;57832;46.038;11.398;2022-12-20T07:24:14;98101.28;;;-4.03;100.00
70411;BME280;57832;46.038;11.398;2022-12-20T07:26:40;98113.06;;;-4.00;100.00
70411;BME280;57832;46.038;11.398;2022-12-20T07:29:05;98100.88;;;-3.76;100.00
70411;BME280;57832;46.038;11.398;2022-12-20T07:31:31;98103.03;;;-3.71;100.00
70411;BME280;57832;46.038;11.398;2022-12-20T07:33:56;98102.00;;;-3.68;100.00
70411;BME280;57832;46.038;11.398;2022-12-20T07:36:21;98105.47;;;-3.70;100.00
70411;BME280;57832;46.038;11.398;2022-12-20T07:38:47;98099.63;;;-3.60;100.00
70411;BME280;57832;46.038;11.398;2022-12-20T07:41:13;98101.09;;;-3.46;100.00
70411;BME280;57832;46.038;11.398;2022-12-20T07:43:40;98101.13;;;-3.37;100.00
70411;BME280;57832;46.038;11.398;2022-12-20T07:46:05;98111.84;;;-3.53;100.00
70411;BME280;57832;46.038;11.398;2022-12-20T07:48:31;98110.78;;;-3.50;100.00
70411;BME280;57832;46.038;11.398;2022-12-20T07:51:01;98108.66;;;-3.45;100.00
70411;BME280;57832;46.038;11.398;2022-12-20T07:53:27;98100.06;;;-3.34;100.00
70411;BME280;57832;46.038;11.398;2022-12-20T07:55:54;98109.03;;;-3.28;100.00
70411;BME280;57832;46.038;11.398;2022-12-20T07:58:20;98108.44;;;-2.90;100.00
70411;BME280;57832;46.038;11.398;2022-12-20T08:00:46;98101.50;;;-2.99;100.00
70411;BME280;57832;46.038;11.398;2022-12-20T08:03:18;98098.72;;;-3.17;100.00
70411;BME280;57832;46.038;11.398;2022-12-20T08:05:46;98094.25;;;-3.15;100.00
70411;BME280;57832;46.038;11.398;2022-12-20T08:08:11;98095.03;;;-2.93;100.00
70411;BME280;57832;46.038;11.398;2022-12-20T08:10:37;98090.09;;;-2.85;100.00
70411;BME280;57832;46.038;11.398;2022-12-20T08:13:04;98089.25;;;-2.86;100.00
70411;BME280;57832;46.038;11.398;2022-12-20T08:15:30;98087.75;;;-2.57;100.00
70411;BME280;57832;46.038;11.398;2022-12-20T08:17:56;98084.53;;;-2.49;100.00
70411;BME280;57832;46.038;11.398;2022-12-20T08:20:21;98076.19;;;-2.32;100.00
70411;BME280;57832;46.038;11.398;2022-12-20T08:22:47;98084.03;;;-2.33;100.00
70411;BME280;57832;46.038;11.398;2022-12-20T08:25:12;98076.31;;;-2.33;100.00
70411;BME280;57832;46.038;11.398;2022-12-20T08:27:37;98078.50;;;-2.19;100.00
70411;BME280;57832;46.038;11.398;2022-12-20T08:30:03;98080.56;;;-2.03;100.00
70411;BME280;57832;46.038;11.398;2022-12-20T08:32:29;98075.03;;;-1.89;100.00
70411;BME280;57832;46.038;11.398;2022-12-20T08:34:54;98078.69;;;-1.72;100.00
70411;BME280;57832;46.038;11.398;2022-12-20T08:37:20;98073.53;;;-1.62;100.00
70411;BME280;57832;46.038;11.398;2022-12-20T08:39:45;98076.75;;;-1.40;100.00
70411;BME280;57832;46.038;11.398;2022-12-20T08:42:11;98065.22;;;-1.16;100.00
70411;BME280;57832;46.038;11.398;2022-12-20T08:44:36;98066.72;;;-1.24;100.00
70411;BME280;57832;46.038;11.398;2022-12-20T08:47:01;98059.28;;;-1.37;100.00
70411;BME280;57832;46.038;11.398;2022-12-20T08:49:27;98070.50;;;-1.18;100.00
70411;BME280;57832;46.038;11.398;2022-12-20T08:51:52;98067.28;;;-0.92;100.00
70411;BME280;57832;46.038;11.398;2022-12-20T08:54:18;98075.16;;;-1.80;100.00
70411;BME280;57832;46.038;11.398;2022-12-20T08:56:43;98082.06;;;-1.71;100.00
70411;BME280;57832;46.038;11.398;2022-12-20T08:59:08;98085.59;;;-1.62;100.00
70411;BME280;57832;46.038;11.398;2022-12-20T09:01:34;98086.41;;;-1.72;100.00
70411;BME280;57832;46.038;11.398;2022-12-20T09:03:59;98074.78;;;-1.76;100.00
70411;BME280;57832;46.038;11.398;2022-12-20T09:06:24;98084.91;;;-1.45;100.00
70411;BME280;57832;46.038;11.398;2022-12-20T09:08:50;98078.13;;;-1.46;100.00
70411;BME280;57832;46.038;11.398;2022-12-20T09:11:17;98074.97;;;-1.20;100.00
70411;BME280;57832;46.038;11.398;2022-12-20T09:13:43;98077.09;;;-1.06;100.00
70411;BME280;57832;46.038;11.398;2022-12-20T09:16:10;98078.94;;;-0.78;100.00
70411;BME280;57832;46.038;11.398;2022-12-20T09:18:35;98080.13;;;-0.73;100.00
70411;BME280;57832;46.038;11.398;2022-12-20T09:21:01;98085.19;;;-0.53;100.00
70411;BME280;57832;46.038;11.398;2022-12-20T09:23:27;98080.78;;;-0.43;100.00
70411;BME280;57832;46.038;11.398;2022-12-20T09:25:53;98080.50;;;-0.12;100.00
70411;BME280;57832;46.038;11.398;2022-12-20T09:28:18;98077.09;;;-0.12;100.00
70411;BME280;57832;46.038;11.398;2022-12-20T09:30:44;98071.34;;;-0.06;100.00
70411;BME280;57832;46.038;11.398;2022-12-20T09:33:09;98064.22;;;0.06;100.00
70411;BME280;57832;46.038;11.398;2022-12-20T09:35:35;98064.63;;;-0.17;100.00
70411;BME280;57832;46.038;11.398;2022-12-20T09:38:00;98062.00;;;-0.53;100.00
70411;BME280;57832;46.038;11.398;2022-12-20T09:40:27;98055.56;;;-0.03;100.00
70411;BME280;57832;46.038;11.398;2022-12-20T09:42:54;98052.81;;;-0.38;100.00
70411;BME280;57832;46.038;11.398;2022-12-20T09:45:29;98059.28;;;-0.34;100.00
70411;BME280;57832;46.038;11.398;2022-12-20T09:47:56;98058.59;;;-0.08;100.00
70411;BME280;57832;46.038;11.398;2022-12-20T09:50:36;98047.03;;;0.14;100.00
70411;BME280;57832;46.038;11.398;2022-12-20T09:58:56;98045.72;;;0.81;100.00
70411;BME280;57832;46.038;11.398;2022-12-20T10:00:51;98043.78;;;0.75;100.00
70411;BME280;57832;46.038;11.398;2022-12-20T10:03:20;98029.63;;;0.87;100.00
70411;BME280;57832;46.038;11.398;2022-12-20T10:10:46;98013.19;;;0.88;100.00
70411;BME280;57832;46.038;11.398;2022-12-20T10:13:24;98009.94;;;1.29;100.00
70411;BME280;57832;46.038;11.398;2022-12-20T10:15:56;97999.25;;;1.15;100.00
70411;BME280;57832;46.038;11.398;2022-12-20T10:19:01;97999.94;;;1.26;100.00
70411;BME280;57832;46.038;11.398;2022-12-20T10:21:20;97996.59;;;1.50;100.00
70411;BME280;57832;46.038;11.398;2022-12-20T10:23:56;97988.69;;;1.60;100.00
70411;BME280;57832;46.038;11.398;2022-12-20T10:26:24;97989.44;;;1.36;100.00
70411;BME280;57832;46.038;11.398;2022-12-20T10:28:50;97987.97;;;1.25;100.00
70411;BME280;57832;46.038;11.398;2022-12-20T10:31:16;97976.41;;;1.45;100.00
70411;BME280;57832;46.038;11.398;2022-12-20T10:33:42;97972.81;;;0.87;100.00
70411;BME280;57832;46.038;11.398;2022-12-20T10:38:43;97987.16;;;0.81;100.00
70411;BME280;57832;46.038;11.398;2022-12-20T10:41:10;97969.56;;;0.85;100.00
70411;BME280;57832;46.038;11.398;2022-12-20T10:43:43;97975.72;;;1.27;100.00
70411;BME280;57832;46.038;11.398;2022-12-20T10:46:09;97964.72;;;1.33;100.00
70411;BME280;57832;46.038;11.398;2022-12-20T10:53:35;97939.13;;;1.97;100.00
70411;BME280;57832;46.038;11.398;2022-12-20T10:56:10;97944.75;;;1.76;100.00
70411;BME280;57832;46.038;11.398;2022-12-20T10:58:37;97935.03;;;1.87;100.00
70411;BME280;57832;46.038;11.398;2022-12-20T11:01:05;97928.91;;;2.04;100.00
70411;BME280;57832;46.038;11.398;2022-12-20T11:03:53;97925.97;;;2.15;100.00
70411;BME280;57832;46.038;11.398;2022-12-20T11:06:20;97920.81;;;2.15;100.00
70411;BME280;57832;46.038;11.398;2022-12-20T11:08:46;97913.03;;;2.32;100.00
70411;BME280;57832;46.038;11.398;2022-12-20T11:13:38;97904.22;;;2.58;100.00
70411;BME280;57832;46.038;11.398;2022-12-20T11:16:04;97905.56;;;2.85;100.00
70411;BME280;57832;46.038;11.398;2022-12-20T11:18:53;97904.78;;;3.16;100.00
70411;BME280;57832;46.038;11.398;2022-12-20T11:21:22;97892.75;;;3.70;100.00
70411;BME280;57832;46.038;11.398;2022-12-20T11:24:10;97880.69;;;4.45;100.00
70411;BME280;57832;46.038;11.398;2022-12-20T11:29:23;97870.19;;;4.23;100.00
70411;BME280;57832;46.038;11.398;2022-12-20T11:34:44;97864.25;;;3.99;100.00
70411;BME280;57832;46.038;11.398;2022-12-20T11:37:23;97860.34;;;3.65;100.00
70411;BME280;57832;46.038;11.398;2022-12-20T11:39:54;97859.72;;;3.40;100.00
70411;BME280;57832;46.038;11.398;2022-12-20T11:44:52;97851.63;;;3.58;100.00
70411;BME280;57832;46.038;11.398;2022-12-20T11:57:40;97822.25;;;3.81;100.00
70411;BME280;57832;46.038;11.398;2022-12-20T12:00:10;97823.09;;;4.11;100.00
70411;BME280;57832;46.038;11.398;2022-12-20T12:05:06;97809.66;;;5.11;100.00
70411;BME280;57832;46.038;11.398;2022-12-20T12:07:35;97800.81;;;4.68;100.00
70411;BME280;57832;46.038;11.398;2022-12-20T12:12:49;97791.56;;;4.29;100.00
70411;BME280;57832;46.038;11.398;2022-12-20T12:20:34;97786.00;;;4.32;100.00
70411;BME280;57832;46.038;11.398;2022-12-20T12:23:35;97786.19;;;4.31;100.00
70411;BME280;57832;46.038;11.398;2022-12-20T12:25:52;97776.94;;;4.43;100.00
70411;BME280;57832;46.038;11.398;2022-12-20T12:28:18;97785.72;;;4.57;100.00
70411;BME280;57832;46.038;11.398;2022-12-20T12:30:49;97787.25;;;4.37;100.00
70411;BME280;57832;46.038;11.398;2022-12-20T12:33:18;97778.75;;;4.43;100.00
70411;BME280;57832;46.038;11.398;2022-12-20T12:35:58;97782.78;;;4.82;100.00
70411;BME280;57832;46.038;11.398;2022-12-20T12:43:49;97773.66;;;4.34;100.00
70411;BME280;57832;46.038;11.398;2022-12-20T12:46:22;97776.53;;;4.25;100.00
70411;BME280;57832;46.038;11.398;2022-12-20T12:51:20;97766.94;;;3.95;100.00
70411;BME280;57832;46.038;11.398;2022-12-20T12:53:48;97755.97;;;3.93;100.00
70411;BME280;57832;46.038;11.398;2022-12-20T12:59:07;97755.47;;;4.34;100.00
70411;BME280;57832;46.038;11.398;2022-12-20T13:01:47;97746.63;;;4.14;100.00
70411;BME280;57832;46.038;11.398;2022-12-20T13:04:56;97749.19;;;4.29;100.00
70411;BME280;57832;46.038;11.398;2022-12-20T13:07:02;97739.56;;;4.23;100.00
70411;BME280;57832;46.038;11.398;2022-12-20T13:09:46;97732.94;;;4.20;100.00
70411;BME280;57832;46.038;11.398;2022-12-20T13:14:55;97751.28;;;4.04;100.00
70411;BME280;57832;46.038;11.398;2022-12-20T13:19:50;97752.44;;;3.71;100.00
70411;BME280;57832;46.038;11.398;2022-12-20T13:27:24;97756.19;;;3.15;100.00
70411;BME280;57832;46.038;11.398;2022-12-20T13:29:51;97745.88;;;3.07;100.00
70411;BME280;57832;46.038;11.398;2022-12-20T13:35:01;97733.91;;;3.44;100.00
70411;BME280;57832;46.038;11.398;2022-12-20T13:40:20;97724.50;;;3.43;100.00
70411;BME280;57832;46.038;11.398;2022-12-20T13:42:47;97727.84;;;3.52;100.00
70411;BME280;57832;46.038;11.398;2022-12-20T13:45:16;97728.63;;;3.38;100.00
70411;BME280;57832;46.038;11.398;2022-12-20T13:50:54;97719.66;;;3.25;100.00
70411;BME280;57832;46.038;11.398;2022-12-20T13:53:20;97727.78;;;3.22;100.00
70411;BME280;57832;46.038;11.398;2022-12-20T13:55:46;97733.47;;;3.03;100.00
70411;BME280;57832;46.038;11.398;2022-12-20T13:58:22;97731.38;;;2.75;100.00
70411;BME280;57832;46.038;11.398;2022-12-20T14:00:49;97747.38;;;2.78;100.00
70411;BME280;57832;46.038;11.398;2022-12-20T14:03:25;97741.59;;;2.45;100.00
70411;BME280;57832;46.038;11.398;2022-12-20T14:05:58;97743.25;;;2.38;100.00
70411;BME280;57832;46.038;11.398;2022-12-20T14:08:35;97744.94;;;2.22;100.00
70411;BME280;57832;46.038;11.398;2022-12-20T14:11:08;97731.81;;;2.24;100.00
70411;BME280;57832;46.038;11.398;2022-12-20T14:13:34;97744.75;;;2.24;100.00
70411;BME280;57832;46.038;11.398;2022-12-20T14:16:32;97737.72;;;2.09;100.00